createdAt,value
2022-11-24T00:01:41.752Z,12.30
2022-11-24T00:04:11.785Z,18.10
2022-11-24T00:06:39.742Z,12.70
2022-11-24T00:09:08.049Z,17.20
2022-11-24T00:11:36.711Z,16.20
2022-11-24T00:14:06.198Z,16.80
2022-11-24T00:16:36.614Z,17.40
2022-11-24T00:19:09.377Z,14.10
2022-11-24T00:21:38.346Z,14.90
2022-11-24T00:24:06.740Z,16.10
2022-11-24T00:26:39.552Z,14.20
2022-11-24T00:29:18.626Z,15.00
2022-11-24T00:31:46.534Z,13.50
2022-11-24T00:34:15.005Z,15.00
2022-11-24T00:36:43.461Z,15.60
2022-11-24T00:39:13.486Z,15.30
2022-11-24T00:41:42.855Z,19.00
2022-11-24T00:44:11.024Z,16.00
2022-11-24T00:46:39.422Z,17.00
2022-11-24T00:49:07.489Z,14.70
2022-11-24T00:51:35.404Z,19.20
2022-11-24T00:54:03.444Z,15.90
2022-11-24T00:56:31.541Z,14.80
2022-11-24T00:58:59.514Z,15.60
2022-11-24T01:01:30.344Z,17.30
2022-11-24T01:04:01.541Z,17.00
2022-11-24T01:06:31.027Z,15.80
2022-11-24T01:08:59.048Z,15.10
2022-11-24T01:12:05.535Z,13.50
2022-11-24T01:15:16.475Z,20.20
2022-11-24T01:17:56.407Z,13.60
2022-11-24T01:20:29.686Z,17.00
2022-11-24T01:23:10.433Z,16.20
2022-11-24T01:26:29.622Z,13.40
2022-11-24T01:30:17.576Z,12.50
2022-11-24T01:32:52.385Z,11.20
2022-11-24T01:35:31.866Z,11.80
2022-11-24T01:38:07.903Z,10.90
2022-11-24T01:40:39.618Z,9.90
2022-11-24T01:43:18.606Z,10.70
2022-11-24T01:46:29.664Z,10.40
2022-11-24T01:49:06.845Z,11.40
2022-11-24T01:51:39.677Z,9.90
2022-11-24T01:54:22.606Z,9.30
2022-11-24T01:56:56.088Z,10.30
2022-11-24T01:59:25.594Z,10.50
2022-11-24T02:01:55.019Z,9.80
2022-11-24T02:04:28.095Z,10.20
2022-11-24T02:06:59.880Z,10.50
2022-11-24T02:09:43.125Z,10.20
2022-11-24T02:12:11.629Z,10.40
2022-11-24T02:14:42.503Z,10.40
2022-11-24T02:17:10.699Z,10.50
2022-11-24T02:19:57.662Z,12.80
2022-11-24T02:22:44.619Z,12.40
2022-11-24T02:25:34.396Z,23.00
2022-11-24T02:28:08.961Z,19.00
2022-11-24T02:30:37.085Z,20.50
2022-11-24T02:33:05.101Z,21.90
2022-11-24T02:35:33.943Z,26.20
2022-11-24T02:38:01.897Z,25.20
2022-11-24T02:40:31.116Z,21.40
2022-11-24T02:43:05.958Z,18.70
2022-11-24T02:45:34.059Z,24.70
2022-11-24T02:48:02.006Z,22.00
2022-11-24T02:50:29.965Z,23.10
2022-11-24T02:52:57.883Z,22.80
2022-11-24T02:55:25.809Z,22.00
2022-11-24T02:57:53.722Z,19.90
2022-11-24T03:04:57.348Z,24.80
2022-11-24T03:07:25.421Z,27.60
2022-11-24T03:09:53.501Z,22.50
2022-11-24T03:12:21.563Z,23.60
2022-11-24T03:14:49.532Z,22.60
2022-11-24T03:17:17.524Z,18.90
2022-11-24T03:19:45.551Z,20.10
2022-11-24T03:22:14.266Z,16.10
2022-11-24T03:24:42.400Z,15.40
2022-11-24T03:27:10.330Z,14.20
2022-11-24T03:29:38.343Z,14.10
2022-11-24T03:32:06.375Z,12.80
2022-11-24T03:34:34.536Z,15.00
2022-11-24T03:37:02.795Z,12.00
2022-11-24T03:39:30.817Z,12.50
2022-11-24T03:41:58.859Z,11.70
2022-11-24T03:44:26.945Z,11.10
2022-11-24T03:46:54.920Z,11.60
2022-11-24T03:49:23.011Z,10.00
2022-11-24T03:51:51.010Z,13.00
2022-11-24T03:54:19.009Z,20.10
2022-11-24T03:56:47.658Z,17.70
2022-11-24T03:59:15.586Z,21.80
2022-11-24T04:01:43.553Z,20.20
2022-11-24T04:04:12.631Z,16.20
2022-11-24T04:06:41.082Z,17.90
2022-11-24T04:09:09.914Z,19.90
2022-11-24T04:12:07.000Z,15.70
2022-11-24T04:14:35.368Z,15.80
2022-11-24T04:17:04.628Z,22.10
2022-11-24T04:19:32.580Z,19.00
2022-11-24T04:22:00.572Z,16.40
2022-11-24T04:24:28.585Z,16.40
2022-11-24T04:26:56.541Z,18.30
2022-11-24T04:29:24.506Z,18.00
2022-11-24T04:31:52.497Z,16.90
2022-11-24T04:34:20.552Z,16.80
2022-11-24T04:36:48.461Z,17.60
2022-11-24T04:39:24.689Z,17.20
2022-11-24T04:41:55.313Z,16.10
2022-11-24T04:44:23.206Z,17.00
2022-11-24T04:46:51.278Z,16.60
2022-11-24T04:49:19.695Z,18.80
2022-11-24T04:51:47.573Z,23.80
2022-11-24T04:54:16.235Z,23.60
2022-11-24T04:56:44.260Z,23.20
2022-11-24T04:59:15.363Z,23.60
2022-11-24T05:01:43.911Z,18.50
2022-11-24T05:04:14.027Z,20.70
2022-11-24T05:06:42.186Z,20.60
2022-11-24T05:09:14.815Z,23.60
2022-11-24T05:11:43.968Z,26.60
2022-11-24T05:14:12.165Z,23.40
2022-11-24T05:16:40.837Z,27.80
2022-11-24T05:19:08.979Z,23.50
2022-11-24T05:21:37.106Z,28.00
2022-11-24T05:24:05.158Z,26.80
2022-11-24T05:26:35.624Z,24.30
2022-11-24T05:29:05.723Z,27.00
2022-11-24T05:31:34.257Z,22.30
2022-11-24T05:34:02.312Z,29.20
2022-11-24T05:36:48.890Z,29.50
2022-11-24T05:39:16.930Z,31.50
2022-11-24T05:41:45.339Z,33.80
2022-11-24T05:44:13.353Z,36.50
2022-11-24T05:46:41.421Z,38.10
2022-11-24T05:49:09.557Z,67.60
2022-11-24T05:51:37.480Z,46.10
2022-11-24T05:54:05.595Z,55.00
2022-11-24T05:56:33.463Z,51.80
2022-11-24T05:59:05.380Z,51.00
2022-11-24T06:01:36.424Z,48.10
2022-11-24T06:04:04.506Z,38.20
2022-11-24T06:06:32.464Z,31.80
2022-11-24T06:09:00.493Z,35.90
2022-11-24T06:11:28.666Z,27.40
2022-11-24T06:13:56.800Z,29.70
2022-11-24T06:16:25.015Z,23.40
2022-11-24T06:18:53.067Z,24.80
2022-11-24T06:21:21.209Z,20.70
2022-11-24T06:23:49.686Z,22.70
2022-11-24T06:26:18.391Z,24.20
2022-11-24T06:28:46.268Z,24.30
2022-11-24T06:31:14.314Z,26.70
2022-11-24T06:33:43.043Z,23.50
2022-11-24T06:36:14.948Z,21.60
2022-11-24T06:38:43.259Z,17.70
2022-11-24T06:41:15.864Z,21.10
2022-11-24T06:43:44.723Z,17.10
2022-11-24T06:46:13.302Z,16.50
2022-11-24T06:48:41.561Z,19.50
2022-11-24T06:51:13.081Z,18.80
2022-11-24T06:53:41.488Z,16.60
2022-11-24T06:56:16.381Z,15.60
2022-11-24T06:58:47.675Z,17.40
2022-11-24T07:01:27.138Z,15.50
2022-11-24T07:03:56.647Z,17.10
2022-11-24T07:06:26.487Z,18.80
2022-11-24T07:08:54.621Z,18.10
2022-11-24T07:11:24.116Z,19.30
2022-11-24T07:13:58.133Z,19.00
2022-11-24T07:16:28.792Z,19.30
2022-11-24T07:18:57.283Z,19.30
2022-11-24T07:21:26.698Z,19.50
2022-11-24T07:23:57.648Z,19.10
2022-11-24T07:26:26.555Z,19.50
2022-11-24T07:28:54.619Z,17.60
2022-11-24T07:31:26.506Z,14.10
2022-11-24T07:33:55.608Z,15.40
2022-11-24T07:36:24.657Z,16.10
2022-11-24T07:38:52.692Z,15.30
2022-11-24T07:41:20.847Z,12.70
2022-11-24T07:43:49.424Z,15.10
2022-11-24T07:46:19.837Z,15.70
2022-11-24T07:48:48.274Z,16.10
2022-11-24T07:51:16.251Z,17.20
2022-11-24T07:53:46.470Z,12.60
2022-11-24T07:56:14.528Z,11.20
2022-11-24T07:58:42.598Z,10.20
2022-11-24T08:01:11.757Z,10.80
2022-11-24T08:03:40.282Z,8.90
2022-11-24T08:06:24.979Z,8.60
2022-11-24T08:08:56.380Z,8.70
2022-11-24T08:11:25.108Z,11.80
2022-11-24T08:13:53.670Z,8.40
2022-11-24T08:16:21.765Z,7.90
2022-11-24T08:18:51.821Z,8.40
2022-11-24T08:21:21.183Z,8.20
2022-11-24T08:23:49.646Z,8.50
2022-11-24T08:26:19.431Z,8.20
2022-11-24T08:28:54.406Z,6.20
2022-11-24T08:31:22.388Z,8.90
2022-11-24T08:33:50.353Z,8.40
2022-11-24T08:36:19.546Z,9.20
2022-11-24T08:38:49.456Z,8.60
2022-11-24T08:41:17.648Z,8.60
2022-11-24T08:43:46.115Z,10.40
2022-11-24T08:46:19.112Z,7.30
2022-11-24T08:48:50.284Z,6.00
2022-11-24T08:51:21.183Z,6.90
2022-11-24T08:53:49.277Z,6.10
2022-11-24T08:56:17.213Z,5.60
2022-11-24T08:58:45.205Z,8.00
2022-11-24T09:01:15.604Z,6.50
2022-11-24T09:03:50.315Z,6.70
2022-11-24T09:06:23.076Z,6.50
2022-11-24T09:08:52.512Z,6.20
2022-11-24T09:11:21.572Z,7.00
2022-11-24T09:13:49.990Z,6.10
2022-11-24T09:16:20.540Z,6.60
2022-11-24T09:18:54.706Z,7.00
2022-11-24T09:21:22.963Z,6.40
2022-11-24T09:23:52.870Z,6.20
2022-11-24T09:26:23.744Z,4.50
2022-11-24T09:28:54.685Z,4.60
2022-11-24T09:31:26.115Z,4.50
2022-11-24T09:33:54.891Z,5.00
2022-11-24T09:36:23.916Z,4.50
2022-11-24T09:38:52.139Z,5.00
2022-11-24T09:41:49.521Z,3.40
2022-11-24T09:44:37.043Z,3.20
2022-11-24T09:47:29.444Z,2.90
2022-11-24T09:50:04.485Z,2.20
2022-11-24T09:52:44.571Z,2.50
2022-11-24T09:55:35.031Z,2.40
2022-11-24T09:58:25.044Z,2.40
2022-11-24T10:00:55.729Z,2.50
2022-11-24T10:03:32.423Z,3.00
2022-11-24T10:06:13.419Z,2.50
2022-11-24T10:09:03.515Z,3.30
2022-11-24T10:12:13.271Z,3.20
2022-11-24T10:14:47.308Z,3.80
2022-11-24T10:17:49.719Z,2.50
2022-11-24T10:20:27.280Z,3.20
2022-11-24T10:23:39.792Z,2.30
2022-11-24T10:26:15.847Z,2.20
2022-11-24T10:28:53.498Z,2.20
2022-11-24T10:31:38.457Z,2.40
2022-11-24T10:34:39.637Z,2.30
2022-11-24T10:37:10.557Z,3.30
2022-11-24T10:39:53.802Z,2.30
2022-11-24T10:42:32.384Z,1.80
2022-11-24T10:45:13.815Z,1.90
2022-11-24T10:47:43.616Z,2.10
2022-11-24T10:50:17.567Z,4.90
2022-11-24T10:52:51.334Z,4.00
2022-11-24T10:55:21.607Z,2.20
2022-11-24T10:57:49.948Z,3.30
2022-11-24T11:00:20.933Z,2.30
2022-11-24T11:02:50.890Z,2.70
2022-11-24T11:05:35.289Z,2.60
2022-11-24T11:08:26.640Z,3.30
2022-11-24T11:11:13.783Z,2.90
2022-11-24T11:16:24.291Z,1.90
2022-11-24T11:18:52.992Z,2.20
2022-11-24T11:21:47.219Z,2.50
2022-11-24T11:24:18.443Z,2.80
2022-11-24T11:26:46.405Z,2.30
2022-11-24T11:35:16.052Z,1.90
2022-11-24T11:37:44.862Z,2.20
2022-11-24T11:40:26.631Z,2.30
2022-11-24T11:43:05.900Z,2.80
2022-11-24T11:45:40.375Z,2.40
2022-11-24T11:48:23.596Z,3.00
2022-11-24T11:54:05.738Z,2.40
2022-11-24T11:56:40.423Z,3.10
2022-11-24T11:59:23.474Z,3.20
2022-11-24T12:02:23.920Z,3.60
2022-11-24T12:05:12.426Z,2.50
2022-11-24T12:08:10.793Z,2.70
2022-11-24T12:11:25.521Z,4.80
2022-11-24T12:14:26.208Z,2.70
2022-11-24T12:17:07.379Z,3.90
2022-11-24T12:19:56.897Z,2.30
2022-11-24T12:22:49.501Z,3.00
2022-11-24T12:25:34.698Z,4.00
2022-11-24T12:28:30.511Z,4.30
2022-11-24T12:31:17.044Z,2.60
2022-11-24T12:34:01.198Z,2.90
2022-11-24T12:37:00.376Z,3.40
2022-11-24T12:40:03.970Z,3.10
2022-11-24T12:42:51.691Z,3.80
2022-11-24T12:45:46.914Z,2.60
2022-11-24T12:48:27.023Z,2.60
2022-11-24T12:50:56.740Z,2.50
2022-11-24T12:53:30.762Z,2.80
2022-11-24T12:56:06.095Z,3.50
2022-11-24T12:58:57.870Z,2.10
2022-11-24T13:01:53.472Z,1.90
2022-11-24T13:05:16.722Z,3.50
2022-11-24T13:07:47.697Z,3.10
2022-11-24T13:10:46.570Z,2.60
2022-11-24T13:13:14.768Z,3.00
2022-11-24T13:16:34.783Z,2.50
2022-11-24T13:19:09.345Z,2.60
2022-11-24T13:21:40.385Z,2.70
2022-11-24T13:24:19.217Z,2.30
2022-11-24T13:26:51.640Z,2.50
2022-11-24T13:29:33.745Z,5.10
2022-11-24T13:32:04.730Z,2.00
2022-11-24T13:34:45.936Z,2.50
2022-11-24T13:37:31.747Z,1.90
2022-11-24T13:40:23.955Z,1.90
2022-11-24T13:42:55.081Z,2.40
2022-11-24T13:45:39.389Z,3.20
2022-11-24T13:48:19.723Z,2.10
2022-11-24T13:50:51.442Z,2.30
2022-11-24T13:53:25.748Z,2.00
2022-11-24T13:56:02.937Z,2.40
2022-11-24T13:58:37.231Z,4.50
2022-11-24T14:01:30.351Z,2.60
2022-11-24T14:07:01.193Z,2.90
2022-11-24T14:09:44.880Z,2.20
2022-11-24T14:12:14.333Z,3.80
2022-11-24T14:14:44.492Z,2.90
2022-11-24T14:17:20.602Z,3.10
2022-11-24T14:19:53.963Z,2.40
2022-11-24T14:22:41.328Z,2.50
2022-11-24T14:25:22.975Z,2.50
2022-11-24T14:27:50.904Z,3.40
2022-11-24T14:30:22.327Z,3.50
2022-11-24T14:33:02.151Z,3.50
2022-11-24T14:35:32.795Z,3.60
2022-11-24T14:38:05.934Z,3.80
2022-11-24T14:40:49.978Z,3.90
2022-11-24T14:43:21.171Z,3.60
2022-11-24T14:45:54.186Z,3.50
2022-11-24T14:48:36.626Z,4.20
2022-11-24T14:51:15.503Z,3.30
2022-11-24T14:53:45.778Z,4.00
2022-11-24T14:56:23.045Z,3.40
2022-11-24T14:58:51.557Z,4.30
2022-11-24T15:01:28.351Z,3.20
2022-11-24T15:07:29.024Z,3.80
2022-11-24T15:09:59.934Z,3.80
2022-11-24T15:12:38.488Z,3.80
2022-11-24T15:15:15.326Z,3.80
2022-11-24T15:17:56.350Z,3.60
2022-11-24T15:20:37.919Z,3.50
2022-11-24T15:23:21.561Z,3.50
2022-11-24T15:25:54.580Z,3.60
2022-11-24T15:28:26.712Z,3.00
2022-11-24T15:30:57.121Z,3.10
2022-11-24T15:33:25.164Z,2.90
2022-11-24T15:35:53.994Z,2.90
2022-11-24T15:38:22.610Z,2.40
2022-11-24T15:40:52.811Z,2.30
2022-11-24T15:43:40.590Z,2.10
2022-11-24T15:46:09.422Z,2.40
2022-11-24T15:48:37.566Z,2.50
2022-11-24T15:51:14.107Z,2.70
2022-11-24T15:53:48.219Z,3.00
2022-11-24T15:56:22.418Z,1.90
2022-11-24T15:58:50.308Z,2.40
2022-11-24T16:01:18.342Z,2.70
2022-11-24T16:03:48.290Z,3.00
2022-11-24T16:06:24.156Z,3.70
2022-11-24T16:08:53.933Z,2.90
2022-11-24T16:11:22.816Z,3.20
2022-11-24T16:13:53.928Z,2.20
2022-11-24T16:16:25.327Z,2.80
2022-11-24T16:18:53.457Z,3.10
2022-11-24T16:21:21.548Z,3.10
2022-11-24T16:23:49.464Z,2.50
2022-11-24T16:26:17.384Z,2.90
2022-11-24T16:28:46.006Z,3.50
2022-11-24T16:31:16.249Z,3.10
2022-11-24T16:33:46.477Z,3.10
2022-11-24T16:36:15.317Z,3.30
2022-11-24T16:38:43.841Z,3.70
2022-11-24T16:41:12.093Z,4.30
2022-11-24T16:43:40.314Z,4.50
2022-11-24T16:46:17.525Z,6.10
2022-11-24T16:48:47.712Z,7.10
2022-11-24T16:51:17.471Z,5.30
2022-11-24T16:53:45.432Z,4.80
2022-11-24T16:56:14.784Z,5.80
2022-11-24T16:58:43.073Z,4.80
2022-11-24T17:01:13.769Z,4.60
2022-11-24T17:03:42.063Z,5.20
2022-11-24T17:06:12.872Z,4.70
2022-11-24T17:08:41.367Z,5.00
2022-11-24T17:11:21.226Z,5.50
2022-11-24T17:13:50.557Z,5.40
2022-11-24T17:16:21.298Z,5.60
2022-11-24T17:18:50.493Z,5.70
2022-11-24T17:21:24.175Z,6.60
2022-11-24T17:23:57.073Z,8.00
2022-11-24T17:26:26.252Z,7.70
2022-11-24T17:28:54.797Z,7.30
2022-11-24T17:31:39.811Z,6.60
2022-11-24T17:34:10.729Z,10.70
2022-11-24T17:36:39.963Z,6.80
2022-11-24T17:39:07.872Z,7.60
2022-11-24T17:41:36.120Z,7.20
2022-11-24T17:44:04.465Z,6.40
2022-11-24T17:46:32.482Z,5.90
2022-11-24T17:49:00.577Z,6.00
2022-11-24T17:51:28.662Z,7.80
2022-11-24T17:53:57.618Z,22.60
2022-11-24T17:56:27.895Z,23.30
2022-11-24T17:58:58.866Z,22.00
2022-11-24T18:01:31.633Z,17.80
2022-11-24T18:04:00.704Z,13.50
2022-11-24T18:06:29.072Z,15.60
2022-11-24T18:08:58.248Z,17.80
2022-11-24T18:11:31.666Z,11.90
2022-11-24T18:14:03.423Z,13.70
2022-11-24T18:16:34.741Z,13.80
2022-11-24T18:19:09.899Z,14.20
2022-11-24T18:21:44.814Z,12.70
2022-11-24T18:24:14.014Z,12.20
2022-11-24T18:26:42.754Z,12.30
2022-11-24T18:29:11.570Z,12.10
2022-11-24T18:31:40.320Z,13.00
2022-11-24T18:34:08.808Z,14.30
2022-11-24T18:36:36.789Z,11.20
2022-11-24T18:39:13.488Z,10.50
2022-11-24T18:41:43.438Z,9.70
2022-11-24T18:44:11.439Z,18.30
2022-11-24T18:46:42.410Z,13.00
2022-11-24T18:49:10.672Z,12.00
2022-11-24T18:51:38.722Z,13.30
2022-11-24T18:54:06.767Z,11.20
2022-11-24T18:56:34.775Z,12.20
2022-11-24T18:59:02.682Z,12.20
2022-11-24T19:01:30.890Z,11.10
2022-11-24T19:04:02.235Z,12.00
2022-11-24T19:06:32.765Z,12.70
2022-11-24T19:09:05.514Z,11.00
2022-11-24T19:11:36.210Z,9.70
2022-11-24T19:14:06.516Z,14.20
2022-11-24T19:16:35.120Z,15.40
2022-11-24T19:19:04.377Z,16.20
2022-11-24T19:21:37.688Z,20.70
2022-11-24T19:24:07.439Z,21.10
2022-11-24T19:26:35.557Z,23.30
2022-11-24T19:29:04.996Z,17.40
2022-11-24T19:31:33.831Z,19.50
2022-11-24T19:34:04.340Z,17.10
2022-11-24T19:36:36.018Z,21.60
2022-11-24T19:39:05.367Z,23.80
2022-11-24T19:41:34.456Z,22.80
2022-11-24T19:44:02.502Z,18.90
2022-11-24T19:46:31.181Z,24.80
2022-11-24T19:49:01.324Z,21.30
2022-11-24T19:51:31.759Z,19.20
2022-11-24T19:54:00.721Z,19.00
2022-11-24T19:56:31.391Z,19.00
2022-11-24T19:58:59.491Z,17.30
2022-11-24T20:01:30.649Z,21.40
2022-11-24T20:04:01.350Z,17.60
2022-11-24T20:06:32.238Z,23.50
2022-11-24T20:09:01.564Z,17.70
2022-11-24T20:11:30.171Z,16.30
2022-11-24T20:13:58.826Z,25.90
2022-11-24T20:16:30.124Z,17.90
2022-11-24T20:19:00.782Z,17.70
2022-11-24T20:21:33.144Z,19.90
2022-11-24T20:24:04.332Z,17.60
2022-11-24T20:26:36.670Z,18.00
2022-11-24T20:29:05.918Z,19.20
2022-11-24T20:31:39.361Z,16.20
2022-11-24T20:34:08.667Z,17.20
2022-11-24T20:36:39.847Z,16.40
2022-11-24T20:39:12.042Z,17.10
2022-11-24T20:41:40.332Z,17.60
2022-11-24T20:44:13.654Z,16.10
2022-11-24T20:46:43.460Z,16.80
2022-11-24T20:49:15.126Z,19.50
2022-11-24T20:51:44.386Z,21.00
2022-11-24T20:54:13.654Z,19.50
2022-11-24T20:56:44.729Z,20.80
2022-11-24T20:59:19.043Z,21.30
2022-11-24T21:01:47.872Z,20.50
2022-11-24T21:04:19.678Z,22.40
2022-11-24T21:06:47.890Z,22.20
2022-11-24T21:09:16.187Z,18.00
2022-11-24T21:11:44.728Z,15.40
2022-11-24T21:14:13.262Z,19.50
2022-11-24T21:16:42.755Z,20.70
2022-11-24T21:19:13.493Z,19.30
2022-11-24T21:21:42.913Z,21.70
2022-11-24T21:24:17.133Z,20.20
2022-11-24T21:26:51.333Z,19.40
2022-11-24T21:29:22.645Z,19.90
2022-11-24T21:31:51.052Z,18.40
2022-11-24T21:34:19.640Z,19.40
2022-11-24T21:36:48.006Z,20.10
2022-11-24T21:39:16.535Z,19.50
2022-11-24T21:41:44.848Z,20.70
2022-11-24T21:44:14.361Z,20.10
2022-11-24T21:46:48.198Z,21.00
2022-11-24T21:49:20.759Z,17.60
2022-11-24T21:51:55.457Z,18.70
2022-11-24T21:54:23.929Z,20.80
2022-11-24T21:56:53.366Z,17.20
2022-11-24T21:59:22.288Z,15.90
2022-11-24T22:01:50.923Z,24.10
2022-11-24T22:04:19.029Z,26.30
2022-11-24T22:06:47.069Z,20.40
2022-11-24T22:09:18.155Z,19.80
2022-11-24T22:11:49.481Z,22.10
2022-11-24T22:14:17.980Z,19.10
2022-11-24T22:16:46.387Z,18.80
2022-11-24T22:19:14.948Z,21.10
2022-11-24T22:21:43.140Z,21.20
2022-11-24T22:24:11.469Z,16.40
2022-11-24T22:26:39.542Z,14.70
2022-11-24T22:29:08.449Z,21.90
2022-11-24T22:31:36.423Z,18.80
2022-11-24T22:34:05.035Z,22.80
2022-11-24T22:36:33.332Z,15.70
2022-11-24T22:39:03.849Z,17.70
2022-11-24T22:41:34.234Z,18.10
2022-11-24T22:44:02.794Z,20.50
2022-11-24T22:46:32.280Z,17.20
2022-11-24T22:49:01.890Z,18.90
2022-11-24T22:51:33.262Z,19.50
2022-11-24T22:54:03.792Z,16.60
2022-11-24T22:56:33.429Z,19.40
2022-11-24T22:59:02.520Z,17.70
2022-11-24T23:01:33.747Z,25.40
2022-11-24T23:04:02.637Z,18.10
2022-11-24T23:06:32.369Z,46.80
2022-11-24T23:09:02.015Z,41.00
2022-11-24T23:11:37.647Z,63.60
2022-11-24T23:14:08.858Z,35.90
2022-11-24T23:16:36.896Z,56.50
2022-11-24T23:19:05.546Z,51.60
2022-11-24T23:21:36.281Z,97.40
2022-11-24T23:24:05.711Z,39.30
2022-11-24T23:26:40.979Z,51.20
2022-11-24T23:29:10.754Z,23.90
2022-11-24T23:31:41.616Z,22.60
2022-11-24T23:34:10.009Z,21.00
2022-11-24T23:36:38.124Z,19.70
2022-11-24T23:39:08.910Z,20.00
2022-11-24T23:41:36.930Z,19.00
2022-11-24T23:44:05.962Z,18.50
2022-11-24T23:46:34.186Z,18.50
2022-11-24T23:49:02.145Z,18.60
2022-11-24T23:51:32.342Z,17.50
2022-11-24T23:54:01.455Z,20.60
2022-11-24T23:56:32.944Z,17.80
2022-11-24T23:59:03.290Z,16.60
